sensor_id;sensor_type;location;lat;lon;timestamp;pressure;altitude;pressure_sealevel;temperature;humidity
9110;BME280;4590;51.462;6.692;2024-01-06T00:02:05;100022.69;;;8.78;77.11
9110;BME280;4590;51.462;6.692;2024-01-06T00:04:30;100011.72;;;8.78;77.50
9110;BME280;4590;51.462;6.692;2024-01-06T00:06:55;100015.25;;;8.78;77.04
9110;BME280;4590;51.462;6.692;2024-01-06T00:09:21;100010.91;;;8.77;77.27
9110;BME280;4590;51.462;6.692;2024-01-06T00:11:46;100013.13;;;8.75;76.96
9110;BME280;4590;51.462;6.692;2024-01-06T00:14:11;100011.50;;;8.74;76.96
9110;BME280;4590;51.462;6.692;2024-01-06T00:16:36;100017.00;;;8.74;76.91
9110;BME280;4590;51.462;6.692;2024-01-06T00:19:02;100016.19;;;8.74;77.22
9110;BME280;4590;51.462;6.692;2024-01-06T00:21:27;100012.63;;;8.73;77.06
9110;BME280;4590;51.462;6.692;2024-01-06T00:23:52;100013.13;;;8.75;77.13
9110;BME280;4590;51.462;6.692;2024-01-06T00:26:18;100024.09;;;8.75;77.32
9110;BME280;4590;51.462;6.692;2024-01-06T00:28:43;100023.00;;;8.76;76.93
9110;BME280;4590;51.462;6.692;2024-01-06T00:31:08;100030.09;;;8.77;77.18
9110;BME280;4590;51.462;6.692;2024-01-06T00:33:34;100030.91;;;8.78;77.35
9110;BME280;4590;51.462;6.692;2024-01-06T00:35:59;100033.34;;;8.79;77.31
9110;BME280;4590;51.462;6.692;2024-01-06T00:38:24;100040.44;;;8.81;77.47
9110;BME280;4590;51.462;6.692;2024-01-06T00:40:49;100044.78;;;8.82;77.32
9110;BME280;4590;51.462;6.692;2024-01-06T00:43:15;100041.72;;;8.83;77.39
9110;BME280;4590;51.462;6.692;2024-01-06T00:45:40;100049.16;;;8.83;77.00
9110;BME280;4590;51.462;6.692;2024-01-06T00:48:06;100050.78;;;8.84;77.28
9110;BME280;4590;51.462;6.692;2024-01-06T00:50:31;100050.78;;;8.84;77.48
9110;BME280;4590;51.462;6.692;2024-01-06T00:52:56;100052.41;;;8.85;77.37
9110;BME280;4590;51.462;6.692;2024-01-06T00:55:22;100047.22;;;8.83;77.29
9110;BME280;4590;51.462;6.692;2024-01-06T00:57:48;100046.66;;;8.72;77.06
9110;BME280;4590;51.462;6.692;2024-01-06T01:00:14;100049.81;;;8.79;76.93
9110;BME280;4590;51.462;6.692;2024-01-06T01:02:39;100047.88;;;8.80;77.06
9110;BME280;4590;51.462;6.692;2024-01-06T01:05:05;100055.28;;;8.79;77.31
9110;BME280;4590;51.462;6.692;2024-01-06T01:07:32;100054.16;;;8.81;77.16
9110;BME280;4590;51.462;6.692;2024-01-06T01:09:57;100058.50;;;8.82;77.48
9110;BME280;4590;51.462;6.692;2024-01-06T01:12:23;100059.81;;;8.84;77.29
9110;BME280;4590;51.462;6.692;2024-01-06T01:14:49;100058.69;;;8.85;77.45
9110;BME280;4590;51.462;6.692;2024-01-06T01:17:14;100053.22;;;8.85;77.16
9110;BME280;4590;51.462;6.692;2024-01-06T01:19:40;100062.56;;;8.84;77.21
9110;BME280;4590;51.462;6.692;2024-01-06T01:22:05;100063.38;;;8.85;77.20
9110;BME280;4590;51.462;6.692;2024-01-06T01:24:30;100064.19;;;8.85;77.16
9110;BME280;4590;51.462;6.692;2024-01-06T01:26:55;100068.25;;;8.88;77.28
9110;BME280;4590;51.462;6.692;2024-01-06T01:29:21;100068.25;;;8.88;77.21
9110;BME280;4590;51.462;6.692;2024-01-06T01:31:46;100065.19;;;8.89;77.29
9110;BME280;4590;51.462;6.692;2024-01-06T01:34:12;100074.75;;;8.92;76.91
9110;BME280;4590;51.462;6.692;2024-01-06T01:36:37;100066.50;;;8.92;77.27
9110;BME280;4590;51.462;6.692;2024-01-06T01:39:02;100079.41;;;8.91;77.11
9110;BME280;4590;51.462;6.692;2024-01-06T01:41:28;100082.47;;;8.90;76.80
9110;BME280;4590;51.462;6.692;2024-01-06T01:43:53;100088.75;;;8.90;77.08
9110;BME280;4590;51.462;6.692;2024-01-06T01:46:25;100088.75;;;8.90;76.88
9110;BME280;4590;51.462;6.692;2024-01-06T01:48:51;100090.88;;;8.93;77.22
9110;BME280;4590;51.462;6.692;2024-01-06T01:51:18;100091.69;;;8.94;77.40
9110;BME280;4590;51.462;6.692;2024-01-06T01:53:43;100099.63;;;8.95;77.40
9110;BME280;4590;51.462;6.692;2024-01-06T01:56:09;100097.69;;;8.96;76.93
9110;BME280;4590;51.462;6.692;2024-01-06T01:58:34;100104.31;;;8.95;77.20
9110;BME280;4590;51.462;6.692;2024-01-06T02:01:00;100102.38;;;8.95;77.02
9110;BME280;4590;51.462;6.692;2024-01-06T02:03:25;100107.03;;;8.95;77.16
9110;BME280;4590;51.462;6.692;2024-01-06T02:05:51;100109.47;;;8.96;77.15
9110;BME280;4590;51.462;6.692;2024-01-06T02:08:16;100110.59;;;8.95;77.03
9110;BME280;4590;51.462;6.692;2024-01-06T02:10:41;100118.03;;;8.95;77.03
9110;BME280;4590;51.462;6.692;2024-01-06T02:13:09;100110.59;;;8.95;77.21
9110;BME280;4590;51.462;6.692;2024-01-06T02:15:34;100114.16;;;8.96;77.13
9110;BME280;4590;51.462;6.692;2024-01-06T02:17:59;100110.59;;;8.95;77.19
9110;BME280;4590;51.462;6.692;2024-01-06T02:20:25;100115.28;;;8.95;76.84
9110;BME280;4590;51.462;6.692;2024-01-06T02:22:52;100118.03;;;8.95;76.70
9110;BME280;4590;51.462;6.692;2024-01-06T02:25:18;100118.84;;;8.95;76.83
9110;BME280;4590;51.462;6.692;2024-01-06T02:27:43;100118.84;;;8.95;77.12
9110;BME280;4590;51.462;6.692;2024-01-06T02:30:09;100129.50;;;8.97;76.96
9110;BME280;4590;51.462;6.692;2024-01-06T02:32:34;100131.44;;;8.96;76.83
9110;BME280;4590;51.462;6.692;2024-01-06T02:34:59;100137.72;;;8.97;76.87
9110;BME280;4590;51.462;6.692;2024-01-06T02:37:25;100140.78;;;8.95;76.51
9110;BME280;4590;51.462;6.692;2024-01-06T02:39:52;100140.06;;;8.90;76.60
9110;BME280;4590;51.462;6.692;2024-01-06T02:42:18;100152.78;;;8.86;76.16
9110;BME280;4590;51.462;6.692;2024-01-06T02:44:43;100156.13;;;8.83;76.38
9110;BME280;4590;51.462;6.692;2024-01-06T02:47:08;100154.66;;;8.76;76.25
9110;BME280;4590;51.462;6.692;2024-01-06T02:49:34;100166.53;;;8.72;75.71
9110;BME280;4590;51.462;6.692;2024-01-06T02:51:59;100171.81;;;8.68;76.01
9110;BME280;4590;51.462;6.692;2024-01-06T02:54:24;100173.56;;;8.64;75.50
9110;BME280;4590;51.462;6.692;2024-01-06T02:56:49;100180.47;;;8.62;75.65
9110;BME280;4590;51.462;6.692;2024-01-06T02:59:15;100180.38;;;8.53;75.49
9110;BME280;4590;51.462;6.692;2024-01-06T03:01:40;100187.09;;;8.47;75.31
9110;BME280;4590;51.462;6.692;2024-01-06T03:04:05;100199.47;;;8.44;75.12
9110;BME280;4590;51.462;6.692;2024-01-06T03:06:30;100202.31;;;8.39;74.99
9110;BME280;4590;51.462;6.692;2024-01-06T03:08:56;100204.03;;;8.35;74.91
9110;BME280;4590;51.462;6.692;2024-01-06T03:11:21;100207.69;;;8.31;74.42
9110;BME280;4590;51.462;6.692;2024-01-06T03:13:46;100209.09;;;8.28;74.52
9110;BME280;4590;51.462;6.692;2024-01-06T03:16:11;100211.13;;;8.23;74.32
9110;BME280;4590;51.462;6.692;2024-01-06T03:18:38;100208.78;;;8.16;74.31
9110;BME280;4590;51.462;6.692;2024-01-06T03:21:03;100213.47;;;8.16;74.34
9110;BME280;4590;51.462;6.692;2024-01-06T03:23:28;100220.34;;;8.13;74.46
9110;BME280;4590;51.462;6.692;2024-01-06T03:25:54;100217.47;;;8.04;74.03
9110;BME280;4590;51.462;6.692;2024-01-06T03:28:19;100212.50;;;8.06;74.04
9110;BME280;4590;51.462;6.692;2024-01-06T03:30:44;100226.81;;;8.03;73.95
9110;BME280;4590;51.462;6.692;2024-01-06T03:33:10;100223.25;;;8.03;74.01
9110;BME280;4590;51.462;6.692;2024-01-06T03:35:35;100223.25;;;8.03;74.21
9110;BME280;4590;51.462;6.692;2024-01-06T03:38:00;100224.41;;;8.02;74.08
9110;BME280;4590;51.462;6.692;2024-01-06T03:40:25;100220.84;;;8.01;74.06
9110;BME280;4590;51.462;6.692;2024-01-06T03:42:51;100224.06;;;8.03;73.55
9110;BME280;4590;51.462;6.692;2024-01-06T03:45:16;100236.66;;;8.04;73.91
9110;BME280;4590;51.462;6.692;2024-01-06T03:47:41;100233.91;;;8.04;73.92
9110;BME280;4590;51.462;6.692;2024-01-06T03:50:07;100246.31;;;8.02;73.94
9110;BME280;4590;51.462;6.692;2024-01-06T03:52:32;100249.88;;;8.02;73.96
9110;BME280;4590;51.462;6.692;2024-01-06T03:54:58;100247.72;;;7.99;73.72
9110;BME280;4590;51.462;6.692;2024-01-06T03:57:23;100253.22;;;7.99;73.32
9110;BME280;4590;51.462;6.692;2024-01-06T03:59:48;100255.44;;;7.97;73.54
9110;BME280;4590;51.462;6.692;2024-01-06T04:02:13;100262.84;;;7.97;73.36
9110;BME280;4590;51.462;6.692;2024-01-06T04:04:39;100261.00;;;7.92;73.58
9110;BME280;4590;51.462;6.692;2024-01-06T04:07:04;100259.88;;;7.93;73.18
9110;BME280;4590;51.462;6.692;2024-01-06T04:09:30;100263.44;;;7.94;73.36
9110;BME280;4590;51.462;6.692;2024-01-06T04:11:55;100267.81;;;7.95;73.31
9110;BME280;4590;51.462;6.692;2024-01-06T04:14:20;100273.28;;;7.95;73.37
9110;BME280;4590;51.462;6.692;2024-01-06T04:16:46;100274.09;;;7.95;73.30
9110;BME280;4590;51.462;6.692;2024-01-06T04:19:11;100276.84;;;7.95;73.17
9110;BME280;4590;51.462;6.692;2024-01-06T04:21:37;100273.75;;;7.83;72.76
9110;BME280;4590;51.462;6.692;2024-01-06T04:24:03;100266.47;;;7.92;72.87
9110;BME280;4590;51.462;6.692;2024-01-06T04:26:28;100268.09;;;7.93;72.84
9110;BME280;4590;51.462;6.692;2024-01-06T04:28:53;100265.66;;;7.92;73.06
9110;BME280;4590;51.462;6.692;2024-01-06T04:31:19;100275.78;;;7.91;73.18
9110;BME280;4590;51.462;6.692;2024-01-06T04:33:44;100267.59;;;7.91;73.05
9110;BME280;4590;51.462;6.692;2024-01-06T04:36:09;100274.69;;;7.92;73.01
9110;BME280;4590;51.462;6.692;2024-01-06T04:38:34;100272.75;;;7.93;73.01
9110;BME280;4590;51.462;6.692;2024-01-06T04:41:00;100282.59;;;7.94;73.12
9110;BME280;4590;51.462;6.692;2024-01-06T04:43:25;100282.59;;;7.94;72.76
9110;BME280;4590;51.462;6.692;2024-01-06T04:45:50;100280.16;;;7.92;73.07
9110;BME280;4590;51.462;6.692;2024-01-06T04:48:16;100280.47;;;7.91;72.68
9110;BME280;4590;51.462;6.692;2024-01-06T04:50:41;100283.50;;;7.89;72.69
9110;BME280;4590;51.462;6.692;2024-01-06T04:53:06;100280.56;;;7.86;72.72
9110;BME280;4590;51.462;6.692;2024-01-06T04:55:32;100286.94;;;7.81;72.82
9110;BME280;4590;51.462;6.692;2024-01-06T04:57:57;100287.22;;;7.80;72.94
9110;BME280;4590;51.462;6.692;2024-01-06T05:00:22;100290.56;;;7.77;73.02
9110;BME280;4590;51.462;6.692;2024-01-06T05:02:48;100293.59;;;7.75;72.68
9110;BME280;4590;51.462;6.692;2024-01-06T05:05:13;100296.63;;;7.73;72.56
9110;BME280;4590;51.462;6.692;2024-01-06T05:07:38;100309.03;;;7.71;72.47
9110;BME280;4590;51.462;6.692;2024-01-06T05:10:04;100310.13;;;7.70;72.97
9110;BME280;4590;51.462;6.692;2024-01-06T05:12:30;100314.56;;;7.66;72.92
9110;BME280;4590;51.462;6.692;2024-01-06T05:14:55;100315.09;;;7.68;72.83
9110;BME280;4590;51.462;6.692;2024-01-06T05:17:20;100316.50;;;7.65;72.76
9110;BME280;4590;51.462;6.692;2024-01-06T05:19:45;100321.16;;;7.65;72.52
9110;BME280;4590;51.462;6.692;2024-01-06T05:22:11;100316.25;;;7.62;72.73
9110;BME280;4590;51.462;6.692;2024-01-06T05:24:36;100319.53;;;7.64;72.94
9110;BME280;4590;51.462;6.692;2024-01-06T05:27:02;100335.94;;;7.64;72.91
9110;BME280;4590;51.462;6.692;2024-01-06T05:29:27;100323.06;;;7.64;73.00
9110;BME280;4590;51.462;6.692;2024-01-06T05:31:52;100325.00;;;7.64;73.22
9110;BME280;4590;51.462;6.692;2024-01-06T05:34:18;100336.75;;;7.64;73.40
9110;BME280;4590;51.462;6.692;2024-01-06T05:36:43;100331.59;;;7.63;73.33
9110;BME280;4590;51.462;6.692;2024-01-06T05:39:08;100332.69;;;7.62;73.28
9110;BME280;4590;51.462;6.692;2024-01-06T05:41:38;100343.13;;;7.60;73.06
9110;BME280;4590;51.462;6.692;2024-01-06T05:44:04;100343.63;;;7.62;73.48
9110;BME280;4590;51.462;6.692;2024-01-06T05:46:29;100348.31;;;7.61;73.09
9110;BME280;4590;51.462;6.692;2024-01-06T05:48:55;100346.16;;;7.58;73.21
9110;BME280;4590;51.462;6.692;2024-01-06T05:51:21;100346.16;;;7.58;73.19
9110;BME280;4590;51.462;6.692;2024-01-06T05:53:46;100347.25;;;7.57;73.42
9110;BME280;4590;51.462;6.692;2024-01-06T05:56:12;100353.56;;;7.58;73.57
9110;BME280;4590;51.462;6.692;2024-01-06T05:58:46;100345.34;;;7.58;73.51
9110;BME280;4590;51.462;6.692;2024-01-06T06:01:11;100356.59;;;7.56;73.67
9110;BME280;4590;51.462;6.692;2024-01-06T06:03:37;100352.72;;;7.57;73.88
9110;BME280;4590;51.462;6.692;2024-01-06T06:06:02;100364.50;;;7.58;73.96
9110;BME280;4590;51.462;6.692;2024-01-06T06:08:27;100371.59;;;7.59;73.73
9110;BME280;4590;51.462;6.692;2024-01-06T06:10:53;100368.88;;;7.59;73.83
9110;BME280;4590;51.462;6.692;2024-01-06T06:13:30;100375.84;;;7.51;74.01
9110;BME280;4590;51.462;6.692;2024-01-06T06:15:55;100382.84;;;7.57;73.72
9110;BME280;4590;51.462;6.692;2024-01-06T06:18:21;100382.34;;;7.55;73.78
9110;BME280;4590;51.462;6.692;2024-01-06T06:20:46;100394.72;;;7.53;73.79
9110;BME280;4590;51.462;6.692;2024-01-06T06:23:12;100401.06;;;7.48;73.77
9110;BME280;4590;51.462;6.692;2024-01-06T06:25:40;100407.63;;;7.47;73.64
9110;BME280;4590;51.462;6.692;2024-01-06T06:28:06;100406.81;;;7.47;74.10
9110;BME280;4590;51.462;6.692;2024-01-06T06:30:31;100414.28;;;7.41;73.35
9110;BME280;4590;51.462;6.692;2024-01-06T06:32:57;100429.88;;;7.40;73.68
9110;BME280;4590;51.462;6.692;2024-01-06T06:35:23;100422.28;;;7.37;73.47
9110;BME280;4590;51.462;6.692;2024-01-06T06:37:49;100425.88;;;7.33;73.49
9110;BME280;4590;51.462;6.692;2024-01-06T06:40:14;100433.84;;;7.29;73.38
9110;BME280;4590;51.462;6.692;2024-01-06T06:42:40;100427.56;;;7.29;73.56
9110;BME280;4590;51.462;6.692;2024-01-06T06:45:05;100433.84;;;7.29;73.66
9110;BME280;4590;51.462;6.692;2024-01-06T06:47:30;100435.78;;;7.29;73.70
9110;BME280;4590;51.462;6.692;2024-01-06T06:49:56;100434.16;;;7.28;73.73
9110;BME280;4590;51.462;6.692;2024-01-06T06:52:49;100444.66;;;7.21;73.23
9110;BME280;4590;51.462;6.692;2024-01-06T06:55:14;100450.66;;;7.23;73.30
9110;BME280;4590;51.462;6.692;2024-01-06T06:57:39;100454.53;;;7.17;73.45
9110;BME280;4590;51.462;6.692;2024-01-06T07:00:05;100458.09;;;7.17;73.21
9110;BME280;4590;51.462;6.692;2024-01-06T07:02:32;100455.63;;;7.16;73.87
9110;BME280;4590;51.462;6.692;2024-01-06T07:04:58;100466.59;;;7.16;73.50
9110;BME280;4590;51.462;6.692;2024-01-06T07:07:23;100464.94;;;7.15;73.64
9110;BME280;4590;51.462;6.692;2024-01-06T07:09:48;100481.38;;;7.15;73.38
9110;BME280;4590;51.462;6.692;2024-01-06T07:12:13;100485.22;;;7.14;73.31
9110;BME280;4590;51.462;6.692;2024-01-06T07:14:39;100485.78;;;7.11;73.53
9110;BME280;4590;51.462;6.692;2024-01-06T07:17:04;100493.47;;;7.09;73.79
9110;BME280;4590;51.462;6.692;2024-01-06T07:19:31;100492.44;;;7.04;73.77
9110;BME280;4590;51.462;6.692;2024-01-06T07:21:57;100492.44;;;7.04;73.74
9110;BME280;4590;51.462;6.692;2024-01-06T07:24:22;100507.50;;;7.02;73.57
9110;BME280;4590;51.462;6.692;2024-01-06T07:26:47;100494.38;;;6.99;73.69
9110;BME280;4590;51.462;6.692;2024-01-06T07:29:13;100508.06;;;6.99;74.02
9110;BME280;4590;51.462;6.692;2024-01-06T07:31:38;100514.63;;;6.98;73.55
9110;BME280;4590;51.462;6.692;2024-01-06T07:34:03;100519.03;;;6.94;73.97
9110;BME280;4590;51.462;6.692;2024-01-06T07:36:28;100524.28;;;6.90;73.98
9110;BME280;4590;51.462;6.692;2024-01-06T07:38:54;100528.94;;;6.90;73.56
9110;BME280;4590;51.462;6.692;2024-01-06T07:41:21;100528.13;;;6.89;73.90
9110;BME280;4590;51.462;6.692;2024-01-06T07:43:46;100531.72;;;6.85;74.30
9110;BME280;4590;51.462;6.692;2024-01-06T07:46:12;100533.63;;;6.84;73.86
9110;BME280;4590;51.462;6.692;2024-01-06T07:48:37;100531.72;;;6.85;73.57
9110;BME280;4590;51.462;6.692;2024-01-06T07:51:02;100535.84;;;6.82;74.01
9110;BME280;4590;51.462;6.692;2024-01-06T07:53:28;100538.56;;;6.82;74.17
9110;BME280;4590;51.462;6.692;2024-01-06T07:55:54;100545.41;;;6.80;74.30
9110;BME280;4590;51.462;6.692;2024-01-06T07:58:19;100546.53;;;6.79;74.25
9110;BME280;4590;51.462;6.692;2024-01-06T08:00:45;100554.78;;;6.74;74.00
9110;BME280;4590;51.462;6.692;2024-01-06T08:03:10;100555.88;;;6.73;73.95
9110;BME280;4590;51.462;6.692;2024-01-06T08:05:36;100564.38;;;6.71;74.20
9110;BME280;4590;51.462;6.692;2024-01-06T08:08:03;100565.75;;;6.68;74.21
9110;BME280;4590;51.462;6.692;2024-01-06T08:10:29;100565.84;;;6.58;73.89
9110;BME280;4590;51.462;6.692;2024-01-06T08:12:54;100576.44;;;6.65;74.20
9110;BME280;4590;51.462;6.692;2024-01-06T08:15:19;100575.94;;;6.58;74.43
9110;BME280;4590;51.462;6.692;2024-01-06T08:17:45;100584.97;;;6.58;74.14
9110;BME280;4590;51.462;6.692;2024-01-06T08:20:10;100582.25;;;6.58;74.39
9110;BME280;4590;51.462;6.692;2024-01-06T08:22:35;100587.16;;;6.56;74.61
9110;BME280;4590;51.462;6.692;2024-01-06T08:25:01;100591.81;;;6.56;75.02
9110;BME280;4590;51.462;6.692;2024-01-06T08:27:26;100596.47;;;6.55;74.33
9110;BME280;4590;51.462;6.692;2024-01-06T08:29:51;100601.38;;;6.58;74.59
9110;BME280;4590;51.462;6.692;2024-01-06T08:32:16;100597.28;;;6.56;74.77
9110;BME280;4590;51.462;6.692;2024-01-06T08:34:42;100606.31;;;6.56;74.40
9110;BME280;4590;51.462;6.692;2024-01-06T08:37:07;100607.41;;;6.55;74.27
9110;BME280;4590;51.462;6.692;2024-01-06T08:39:33;100609.59;;;6.53;75.01
9110;BME280;4590;51.462;6.692;2024-01-06T08:41:58;100615.06;;;6.53;74.63
9110;BME280;4590;51.462;6.692;2024-01-06T08:44:23;100618.91;;;6.52;74.21
9110;BME280;4590;51.462;6.692;2024-01-06T08:46:49;100619.44;;;6.49;74.72
9110;BME280;4590;51.462;6.692;2024-01-06T08:49:15;100626.00;;;6.48;74.43
9110;BME280;4590;51.462;6.692;2024-01-06T08:51:40;100636.72;;;6.45;74.76
9110;BME280;4590;51.462;6.692;2024-01-06T08:54:05;100640.81;;;6.42;74.32
9110;BME280;4590;51.462;6.692;2024-01-06T08:56:33;100645.75;;;6.40;74.67
9110;BME280;4590;51.462;6.692;2024-01-06T08:58:58;100648.47;;;6.40;74.79
9110;BME280;4590;51.462;6.692;2024-01-06T09:01:24;100665.97;;;6.39;74.50
9110;BME280;4590;51.462;6.692;2024-01-06T09:03:49;100660.00;;;6.32;74.73
9110;BME280;4590;51.462;6.692;2024-01-06T09:06:15;100664.13;;;6.29;74.45
9110;BME280;4590;51.462;6.692;2024-01-06T09:08:40;100670.13;;;6.26;74.74
9110;BME280;4590;51.462;6.692;2024-01-06T09:11:05;100669.31;;;6.26;74.58
9110;BME280;4590;51.462;6.692;2024-01-06T09:13:31;100679.44;;;6.25;74.80
9110;BME280;4590;51.462;6.692;2024-01-06T09:15:57;100689.25;;;6.26;74.66
9110;BME280;4590;51.462;6.692;2024-01-06T09:18:22;100687.91;;;6.29;75.03
9110;BME280;4590;51.462;6.692;2024-01-06T09:20:48;100693.06;;;6.30;74.85
9110;BME280;4590;51.462;6.692;2024-01-06T09:23:13;100698.25;;;6.32;75.50
9110;BME280;4590;51.462;6.692;2024-01-06T09:25:38;100699.31;;;6.36;74.93
9110;BME280;4590;51.462;6.692;2024-01-06T09:28:05;100706.97;;;6.39;75.07
9110;BME280;4590;51.462;6.692;2024-01-06T09:30:30;100706.16;;;6.39;75.03
9110;BME280;4590;51.462;6.692;2024-01-06T09:32:55;100716.25;;;6.38;74.89
9110;BME280;4590;51.462;6.692;2024-01-06T09:35:21;100725.56;;;6.37;74.82
9110;BME280;4590;51.462;6.692;2024-01-06T09:37:46;100721.19;;;6.36;75.03
9110;BME280;4590;51.462;6.692;2024-01-06T09:40:12;100730.47;;;6.35;74.79
9110;BME280;4590;51.462;6.692;2024-01-06T09:42:40;100725.00;;;6.35;74.76
9110;BME280;4590;51.462;6.692;2024-01-06T09:45:06;100725.03;;;6.30;74.88
9110;BME280;4590;51.462;6.692;2024-01-06T09:47:34;100731.31;;;6.36;74.68
9110;BME280;4590;51.462;6.692;2024-01-06T09:50:01;100738.94;;;6.39;74.79
9110;BME280;4590;51.462;6.692;2024-01-06T09:52:26;100729.66;;;6.40;75.49
9110;BME280;4590;51.462;6.692;2024-01-06T09:54:54;100745.78;;;6.41;75.19
9110;BME280;4590;51.462;6.692;2024-01-06T09:57:22;100749.59;;;6.40;74.87
9110;BME280;4590;51.462;6.692;2024-01-06T09:59:48;100744.69;;;6.42;74.61
9110;BME280;4590;51.462;6.692;2024-01-06T10:02:15;100746.59;;;6.42;74.77
9110;BME280;4590;51.462;6.692;2024-01-06T10:04:40;100751.53;;;6.40;74.30
9110;BME280;4590;51.462;6.692;2024-01-06T10:07:06;100742.50;;;6.39;74.73
9110;BME280;4590;51.462;6.692;2024-01-06T10:09:31;100754.25;;;6.40;75.04
9110;BME280;4590;51.462;6.692;2024-01-06T10:11:58;100759.44;;;6.41;74.94
9110;BME280;4590;51.462;6.692;2024-01-06T10:14:25;100760.53;;;6.40;74.11
9110;BME280;4590;51.462;6.692;2024-01-06T10:16:52;100764.09;;;6.41;74.84
9110;BME280;4590;51.462;6.692;2024-01-06T10:19:17;100760.25;;;6.42;74.37
9110;BME280;4590;51.462;6.692;2024-01-06T10:21:44;100767.66;;;6.41;74.69
9110;BME280;4590;51.462;6.692;2024-01-06T10:24:09;100774.47;;;6.39;74.01
9110;BME280;4590;51.462;6.692;2024-01-06T10:26:35;100769.00;;;6.33;74.66
9110;BME280;4590;51.462;6.692;2024-01-06T10:29:01;100773.94;;;6.31;74.48
9110;BME280;4590;51.462;6.692;2024-01-06T10:31:26;100777.25;;;6.28;74.78
9110;BME280;4590;51.462;6.692;2024-01-06T10:33:52;100780.81;;;6.24;74.38
9110;BME280;4590;51.462;6.692;2024-01-06T10:36:17;100791.19;;;6.22;74.48
9110;BME280;4590;51.462;6.692;2024-01-06T10:38:44;100790.38;;;6.21;74.34
9110;BME280;4590;51.462;6.692;2024-01-06T10:41:11;100789.53;;;6.16;74.15
9110;BME280;4590;51.462;6.692;2024-01-06T10:43:38;100794.19;;;6.15;74.73
9110;BME280;4590;51.462;6.692;2024-01-06T10:46:06;100791.47;;;6.10;74.38
9110;BME280;4590;51.462;6.692;2024-01-06T10:48:38;100792.31;;;6.06;74.16
9110;BME280;4590;51.462;6.692;2024-01-06T10:51:04;100785.19;;;5.99;74.21
9110;BME280;4590;51.462;6.692;2024-01-06T10:53:33;100791.22;;;5.96;74.54
9110;BME280;4590;51.462;6.692;2024-01-06T10:55:59;100795.31;;;5.94;74.70
9110;BME280;4590;51.462;6.692;2024-01-06T10:58:24;100797.25;;;5.93;74.18
9110;BME280;4590;51.462;6.692;2024-01-06T11:00:50;100789.59;;;5.90;74.85
9110;BME280;4590;51.462;6.692;2024-01-06T11:03:17;100795.81;;;5.86;74.54
9110;BME280;4590;51.462;6.692;2024-01-06T11:05:43;100790.09;;;5.87;74.33
9110;BME280;4590;51.462;6.692;2024-01-06T11:08:08;100796.66;;;5.86;74.44
9110;BME280;4590;51.462;6.692;2024-01-06T11:10:36;100797.75;;;5.85;74.66
9110;BME280;4590;51.462;6.692;2024-01-06T11:13:12;100798.03;;;5.79;74.46
9110;BME280;4590;51.462;6.692;2024-01-06T11:15:48;100802.66;;;5.73;74.69
9110;BME280;4590;51.462;6.692;2024-01-06T11:21:17;100800.47;;;5.75;74.99
9110;BME280;4590;51.462;6.692;2024-01-06T11:23:44;100802.13;;;5.81;74.96
9110;BME280;4590;51.462;6.692;2024-01-06T11:26:10;100802.66;;;5.83;74.75
9110;BME280;4590;51.462;6.692;2024-01-06T11:28:45;100796.13;;;5.79;75.02
9110;BME280;4590;51.462;6.692;2024-01-06T11:31:12;100796.66;;;5.81;74.60
9110;BME280;4590;51.462;6.692;2024-01-06T11:33:44;100803.75;;;5.77;74.82
9110;BME280;4590;51.462;6.692;2024-01-06T11:36:14;100798.31;;;5.77;74.89
9110;BME280;4590;51.462;6.692;2024-01-06T11:38:40;100805.13;;;5.75;74.62
9110;BME280;4590;51.462;6.692;2024-01-06T11:41:09;100797.19;;;5.73;74.50
9110;BME280;4590;51.462;6.692;2024-01-06T11:43:37;100800.75;;;5.74;74.62
9110;BME280;4590;51.462;6.692;2024-01-06T11:46:05;100802.66;;;5.73;75.11
9110;BME280;4590;51.462;6.692;2024-01-06T11:48:32;100796.38;;;5.73;74.95
9110;BME280;4590;51.462;6.692;2024-01-06T11:50:58;100786.56;;;5.72;74.51
9110;BME280;4590;51.462;6.692;2024-01-06T11:53:26;100791.19;;;5.71;75.05
9110;BME280;4590;51.462;6.692;2024-01-06T11:55:52;100795.56;;;5.72;74.95
9110;BME280;4590;51.462;6.692;2024-01-06T11:58:17;100796.66;;;5.71;74.87
9110;BME280;4590;51.462;6.692;2024-01-06T12:00:42;100795.53;;;5.67;75.50
9110;BME280;4590;51.462;6.692;2024-01-06T12:03:08;100794.19;;;5.70;75.12
9110;BME280;4590;51.462;6.692;2024-01-06T12:05:34;100792.84;;;5.62;74.98
9110;BME280;4590;51.462;6.692;2024-01-06T12:08:01;100801.56;;;5.64;74.35
9110;BME280;4590;51.462;6.692;2024-01-06T12:10:27;100798.28;;;5.62;74.72
9110;BME280;4590;51.462;6.692;2024-01-06T12:13:04;100797.19;;;5.58;74.99
9110;BME280;4590;51.462;6.692;2024-01-06T12:15:31;100801.84;;;5.57;75.32
9110;BME280;4590;51.462;6.692;2024-01-06T12:17:57;100801.84;;;5.57;75.13
9110;BME280;4590;51.462;6.692;2024-01-06T12:20:24;100805.13;;;5.59;74.60
9110;BME280;4590;51.462;6.692;2024-01-06T12:22:53;100801.53;;;5.54;74.93
9110;BME280;4590;51.462;6.692;2024-01-06T12:25:20;100811.38;;;5.55;74.69
9110;BME280;4590;51.462;6.692;2024-01-06T12:27:46;100812.19;;;5.55;74.62
9110;BME280;4590;51.462;6.692;2024-01-06T12:30:15;100812.75;;;5.47;74.95
9110;BME280;4590;51.462;6.692;2024-01-06T12:32:42;100814.94;;;5.50;74.71
9110;BME280;4590;51.462;6.692;2024-01-06T12:35:09;100817.66;;;5.50;75.04
9110;BME280;4590;51.462;6.692;2024-01-06T12:37:35;100824.19;;;5.54;75.08
9110;BME280;4590;51.462;6.692;2024-01-06T12:40:01;100825.03;;;5.55;74.88
9110;BME280;4590;51.462;6.692;2024-01-06T12:42:26;100828.31;;;5.57;74.40
9110;BME280;4590;51.462;6.692;2024-01-06T12:44:52;100831.84;;;5.52;74.44
9110;BME280;4590;51.462;6.692;2024-01-06T12:47:17;100824.47;;;5.48;73.80
9110;BME280;4590;51.462;6.692;2024-01-06T12:49:43;100829.66;;;5.44;74.25
9110;BME280;4590;51.462;6.692;2024-01-06T12:52:08;100830.47;;;5.40;74.61
9110;BME280;4590;51.462;6.692;2024-01-06T12:54:33;100829.91;;;5.38;74.07
9110;BME280;4590;51.462;6.692;2024-01-06T12:56:59;100835.91;;;5.35;74.75
9110;BME280;4590;51.462;6.692;2024-01-06T12:59:25;100838.38;;;5.31;74.72
9110;BME280;4590;51.462;6.692;2024-01-06T13:01:50;100842.44;;;5.28;74.38
9110;BME280;4590;51.462;6.692;2024-01-06T13:04:15;100840.81;;;5.27;74.06
9110;BME280;4590;51.462;6.692;2024-01-06T13:06:40;100841.63;;;5.28;74.29
9110;BME280;4590;51.462;6.692;2024-01-06T13:09:06;100845.16;;;5.28;74.61
9110;BME280;4590;51.462;6.692;2024-01-06T13:11:33;100850.88;;;5.27;74.28
9110;BME280;4590;51.462;6.692;2024-01-06T13:13:59;100848.44;;;5.25;74.44
9110;BME280;4590;51.462;6.692;2024-01-06T13:16:24;100851.69;;;5.22;74.58
9110;BME280;4590;51.462;6.692;2024-01-06T13:18:49;100854.97;;;5.19;74.02